createdAt,value
2022-08-26T00:01:44.804Z,18.50
2022-08-26T00:04:13.015Z,18.40
2022-08-26T00:06:42.284Z,18.40
2022-08-26T00:09:10.430Z,18.30
2022-08-26T00:11:38.041Z,18.30
2022-08-26T00:14:05.171Z,18.30
2022-08-26T00:16:32.130Z,18.30
2022-08-26T00:18:59.274Z,18.30
2022-08-26T00:21:26.612Z,18.40
2022-08-26T00:23:54.475Z,18.40
2022-08-26T00:26:21.319Z,18.30
2022-08-26T00:28:49.567Z,18.30
2022-08-26T00:31:17.139Z,18.20
2022-08-26T00:33:44.175Z,18.20
2022-08-26T00:36:20.417Z,18.30
2022-08-26T00:38:48.116Z,18.40
2022-08-26T00:41:15.222Z,18.40
2022-08-26T00:43:47.225Z,18.30
2022-08-26T00:46:19.764Z,18.20
2022-08-26T00:48:50.090Z,18.20
2022-08-26T00:51:23.427Z,18.20
2022-08-26T00:54:10.850Z,18.20
2022-08-26T00:56:53.479Z,18.20
2022-08-26T00:59:21.095Z,18.20
2022-08-26T01:01:48.313Z,18.20
2022-08-26T01:04:19.620Z,18.10
2022-08-26T01:06:49.079Z,18.00
2022-08-26T01:09:16.871Z,17.90
2022-08-26T01:11:44.675Z,17.80
2022-08-26T01:14:14.465Z,17.80
2022-08-26T01:16:42.245Z,17.70
2022-08-26T01:19:28.301Z,17.70
2022-08-26T01:21:57.551Z,17.70
2022-08-26T01:24:28.298Z,17.60
2022-08-26T01:27:03.406Z,17.70
2022-08-26T01:29:33.599Z,17.70
2022-08-26T01:32:00.683Z,17.70
2022-08-26T01:34:35.079Z,17.70
2022-08-26T01:37:20.544Z,17.70
2022-08-26T01:39:50.951Z,17.70
2022-08-26T01:42:21.280Z,17.70
2022-08-26T01:45:05.104Z,17.70
2022-08-26T01:47:35.074Z,17.70
2022-08-26T01:50:07.595Z,17.80
2022-08-26T01:52:37.906Z,17.80
2022-08-26T01:55:05.971Z,17.80
2022-08-26T01:57:35.353Z,17.80
2022-08-26T02:00:08.138Z,17.80
2022-08-26T02:02:40.573Z,17.80
2022-08-26T02:05:15.626Z,17.80
2022-08-26T02:07:43.627Z,17.80
2022-08-26T02:10:11.378Z,17.70
2022-08-26T02:12:39.662Z,17.60
2022-08-26T02:15:09.863Z,17.60
2022-08-26T02:17:42.672Z,17.50
2022-08-26T02:20:17.007Z,17.50
2022-08-26T02:22:45.335Z,17.50
2022-08-26T02:25:25.045Z,17.50
2022-08-26T02:27:52.406Z,17.50
2022-08-26T02:30:23.004Z,17.50
2022-08-26T02:32:51.845Z,17.50
2022-08-26T02:35:20.850Z,17.50
2022-08-26T02:37:50.015Z,17.50
2022-08-26T02:40:21.543Z,17.50
2022-08-26T02:42:49.064Z,17.40
2022-08-26T02:45:16.768Z,17.40
2022-08-26T02:47:51.586Z,17.40
2022-08-26T02:50:20.273Z,17.40
2022-08-26T02:52:48.385Z,17.40
2022-08-26T02:55:16.372Z,17.50
2022-08-26T02:57:43.784Z,17.60
2022-08-26T03:00:14.525Z,17.60
2022-08-26T03:02:41.659Z,17.50
2022-08-26T03:05:09.003Z,17.50
2022-08-26T03:07:35.958Z,17.40
2022-08-26T03:10:08.303Z,17.40
2022-08-26T03:12:36.233Z,17.50
2022-08-26T03:15:03.567Z,17.40
2022-08-26T03:17:46.712Z,17.40
2022-08-26T03:20:15.579Z,17.30
2022-08-26T03:22:44.926Z,17.30
2022-08-26T03:25:13.994Z,17.30
2022-08-26T03:27:41.824Z,17.30
2022-08-26T03:30:29.725Z,17.30
2022-08-26T03:32:57.129Z,17.20
2022-08-26T03:35:24.277Z,17.10
2022-08-26T03:37:52.290Z,17.10
2022-08-26T03:40:20.550Z,17.10
2022-08-26T03:42:48.098Z,17.00
2022-08-26T03:45:16.795Z,17.00
2022-08-26T03:47:44.560Z,17.00
2022-08-26T03:50:14.404Z,17.00
2022-08-26T03:52:43.987Z,17.10
2022-08-26T03:55:15.218Z,17.20
2022-08-26T03:57:42.866Z,17.30
2022-08-26T04:00:18.292Z,17.20
2022-08-26T04:02:48.764Z,17.10
2022-08-26T04:05:17.621Z,17.00
2022-08-26T04:07:45.896Z,16.90
2022-08-26T04:10:15.094Z,16.90
2022-08-26T04:12:46.336Z,16.90
2022-08-26T04:15:15.832Z,16.90
2022-08-26T04:17:43.168Z,16.80
2022-08-26T04:20:13.956Z,16.80
2022-08-26T04:22:43.235Z,16.70
2022-08-26T04:25:11.438Z,16.70
2022-08-26T04:27:38.459Z,16.60
2022-08-26T04:30:09.042Z,16.60
2022-08-26T04:32:37.402Z,16.70
2022-08-26T04:35:05.422Z,16.70
2022-08-26T04:37:33.599Z,16.70
2022-08-26T04:40:00.680Z,16.80
2022-08-26T04:42:29.352Z,16.90
2022-08-26T04:44:56.147Z,17.00
2022-08-26T04:47:22.983Z,16.90
2022-08-26T04:49:50.446Z,17.00
2022-08-26T04:52:17.380Z,16.90
2022-08-26T04:54:44.182Z,16.90
2022-08-26T04:57:11.076Z,17.10
2022-08-26T04:59:39.485Z,17.10
2022-08-26T05:02:07.307Z,17.10
2022-08-26T05:04:34.598Z,17.30
2022-08-26T05:07:02.577Z,17.30
2022-08-26T05:09:30.490Z,17.40
2022-08-26T05:11:57.900Z,17.40
2022-08-26T05:14:24.886Z,17.40
2022-08-26T05:16:52.622Z,17.60
2022-08-26T05:19:19.780Z,17.50
2022-08-26T05:21:48.739Z,17.50
2022-08-26T05:24:16.373Z,17.50
2022-08-26T05:26:44.823Z,17.60
2022-08-26T05:29:12.150Z,17.70
2022-08-26T05:31:39.149Z,17.90
2022-08-26T05:34:06.045Z,18.00
2022-08-26T05:36:35.711Z,18.10
2022-08-26T05:39:05.961Z,18.10
2022-08-26T05:41:38.423Z,18.10
2022-08-26T05:44:09.988Z,18.20
2022-08-26T05:46:37.911Z,18.30
2022-08-26T05:49:06.047Z,18.30
2022-08-26T05:51:41.298Z,18.40
2022-08-26T05:54:08.124Z,18.50
2022-08-26T05:56:38.555Z,18.60
2022-08-26T05:59:05.438Z,18.60
2022-08-26T06:01:35.926Z,18.70
2022-08-26T06:04:03.177Z,18.70
2022-08-26T06:06:32.922Z,19.00
2022-08-26T06:09:01.493Z,19.20
2022-08-26T06:11:32.093Z,19.40
2022-08-26T06:14:04.003Z,19.50
2022-08-26T06:16:34.675Z,19.40
2022-08-26T06:19:03.222Z,19.50
2022-08-26T06:21:35.001Z,19.50
2022-08-26T06:24:26.954Z,19.60
2022-08-26T06:26:57.018Z,19.80
2022-08-26T06:29:26.188Z,19.90
2022-08-26T06:31:54.904Z,20.00
2022-08-26T06:34:29.760Z,20.20
2022-08-26T06:36:58.754Z,20.30
2022-08-26T06:39:25.642Z,20.40
2022-08-26T06:41:52.987Z,20.50
2022-08-26T06:44:20.997Z,20.60
2022-08-26T06:46:50.643Z,20.80
2022-08-26T06:49:18.556Z,20.90
2022-08-26T06:51:55.064Z,21.00
2022-08-26T06:54:22.360Z,21.20
2022-08-26T06:56:49.578Z,21.40
2022-08-26T06:59:16.466Z,21.60
2022-08-26T07:01:45.334Z,21.80
2022-08-26T07:04:22.085Z,22.00
2022-08-26T07:06:53.016Z,22.20
2022-08-26T07:09:23.885Z,22.30
2022-08-26T07:11:51.650Z,22.50
2022-08-26T07:14:21.505Z,22.60
2022-08-26T07:16:50.733Z,22.80
2022-08-26T07:19:30.104Z,22.90
2022-08-26T07:22:03.568Z,23.00
2022-08-26T07:24:32.484Z,23.10
2022-08-26T07:27:05.396Z,23.10
2022-08-26T07:29:33.246Z,23.10
2022-08-26T07:32:00.220Z,23.30
2022-08-26T07:34:27.273Z,23.40
2022-08-26T07:36:55.295Z,23.50
2022-08-26T07:39:22.761Z,23.70
2022-08-26T07:41:50.758Z,23.80
2022-08-26T07:44:18.287Z,23.90
2022-08-26T07:46:52.279Z,24.10
2022-08-26T07:49:22.780Z,24.20
2022-08-26T07:51:50.889Z,24.40
2022-08-26T07:54:18.659Z,24.50
2022-08-26T07:56:46.947Z,24.60
2022-08-26T07:59:16.154Z,24.60
2022-08-26T08:01:44.757Z,24.60
2022-08-26T08:04:14.459Z,24.60
2022-08-26T08:06:43.997Z,24.70
2022-08-26T08:09:12.356Z,24.70
2022-08-26T08:11:39.335Z,24.80
2022-08-26T08:14:08.570Z,24.90
2022-08-26T08:16:45.847Z,24.90
2022-08-26T08:19:14.560Z,24.90
2022-08-26T08:21:42.173Z,25.00
2022-08-26T08:24:11.046Z,25.00
2022-08-26T08:26:38.012Z,25.00
2022-08-26T08:29:06.126Z,25.10
2022-08-26T08:34:21.531Z,25.20
2022-08-26T08:36:50.374Z,25.30
2022-08-26T08:39:20.478Z,25.50
2022-08-26T08:42:00.573Z,25.50
2022-08-26T08:44:29.641Z,25.60
2022-08-26T08:47:06.160Z,25.80
2022-08-26T08:49:34.502Z,26.00
2022-08-26T08:52:18.995Z,26.30
2022-08-26T08:54:46.737Z,26.80
2022-08-26T08:57:27.785Z,27.00
2022-08-26T09:00:12.594Z,27.00
2022-08-26T09:03:01.702Z,27.30
2022-08-26T09:05:40.032Z,27.50
2022-08-26T09:08:22.588Z,27.50
2022-08-26T09:11:00.629Z,27.50
2022-08-26T09:13:28.311Z,27.60
2022-08-26T09:16:10.443Z,27.70
2022-08-26T09:19:11.347Z,27.80
2022-08-26T09:21:38.354Z,27.80
2022-08-26T09:24:07.336Z,28.10
2022-08-26T09:26:41.043Z,28.40
2022-08-26T09:29:27.367Z,28.30
2022-08-26T09:32:16.323Z,28.70
2022-08-26T09:34:57.261Z,28.90
2022-08-26T09:37:41.076Z,29.00
2022-08-26T09:40:34.927Z,29.30
2022-08-26T09:43:05.604Z,29.60
2022-08-26T09:45:34.300Z,29.70
2022-08-26T09:48:02.485Z,29.70
2022-08-26T09:50:33.247Z,29.70
2022-08-26T09:53:12.943Z,30.10
2022-08-26T09:55:42.789Z,30.50
2022-08-26T09:58:15.651Z,30.10
2022-08-26T10:00:54.795Z,30.00
2022-08-26T10:03:28.458Z,30.10
2022-08-26T10:06:01.028Z,30.40
2022-08-26T10:08:31.966Z,30.70
2022-08-26T10:11:05.515Z,31.20
2022-08-26T10:13:43.266Z,31.00
2022-08-26T10:16:21.005Z,30.30
2022-08-26T10:19:11.390Z,30.30
2022-08-26T10:21:57.839Z,30.10
2022-08-26T10:24:39.638Z,30.00
2022-08-26T10:27:30.327Z,30.10
2022-08-26T10:30:04.086Z,30.10
2022-08-26T10:32:30.955Z,30.40
2022-08-26T10:34:57.861Z,30.40
2022-08-26T10:37:34.854Z,30.50
2022-08-26T10:40:05.347Z,30.80
2022-08-26T10:42:40.277Z,30.70
2022-08-26T10:45:25.279Z,30.80
2022-08-26T10:48:02.949Z,31.20
2022-08-26T10:50:37.294Z,31.20
2022-08-26T10:53:28.698Z,31.60
2022-08-26T10:56:24.910Z,31.50
2022-08-26T10:58:56.669Z,32.10
2022-08-26T11:01:46.854Z,32.30
2022-08-26T11:04:42.348Z,32.60
2022-08-26T11:07:45.439Z,32.40
2022-08-26T11:10:21.513Z,31.90
2022-08-26T11:12:49.878Z,32.00
2022-08-26T11:15:19.822Z,31.60
2022-08-26T11:17:51.619Z,31.40
2022-08-26T11:20:28.540Z,30.80
2022-08-26T11:22:56.309Z,30.70
2022-08-26T11:25:30.776Z,30.90
2022-08-26T11:27:59.873Z,30.80
2022-08-26T11:30:39.634Z,30.10
2022-08-26T11:33:08.419Z,30.60
2022-08-26T11:35:37.515Z,30.90
2022-08-26T11:38:28.678Z,31.00
2022-08-26T11:41:11.943Z,30.50
2022-08-26T11:43:40.586Z,31.10
2022-08-26T11:46:12.165Z,31.70
2022-08-26T11:48:43.952Z,31.90
2022-08-26T11:51:23.874Z,32.00
2022-08-26T11:53:51.251Z,31.80
2022-08-26T11:56:31.537Z,32.30
2022-08-26T11:59:01.981Z,32.30
2022-08-26T12:01:38.309Z,32.40
2022-08-26T12:04:09.901Z,32.20
2022-08-26T12:06:45.860Z,32.20
2022-08-26T12:09:27.850Z,32.30
2022-08-26T12:12:13.644Z,31.80
2022-08-26T12:14:41.647Z,31.90
2022-08-26T12:17:19.817Z,32.00
2022-08-26T12:19:49.453Z,32.20
2022-08-26T12:22:20.932Z,32.50
2022-08-26T12:24:55.675Z,32.80
2022-08-26T12:27:39.919Z,32.80
2022-08-26T12:30:08.867Z,32.50
2022-08-26T12:32:50.981Z,31.60
2022-08-26T12:35:24.829Z,31.60
2022-08-26T12:37:54.104Z,31.90
2022-08-26T12:40:35.827Z,31.60
2022-08-26T12:43:07.037Z,31.40
2022-08-26T12:45:41.531Z,31.10
2022-08-26T12:48:13.505Z,30.80
2022-08-26T12:50:47.769Z,31.10
2022-08-26T12:53:22.660Z,31.80
2022-08-26T12:55:56.087Z,32.10
2022-08-26T12:58:25.500Z,32.20
2022-08-26T13:01:22.446Z,32.10
2022-08-26T13:03:49.738Z,32.00
2022-08-26T13:06:27.595Z,32.10
2022-08-26T13:08:58.703Z,31.90
2022-08-26T13:11:27.851Z,31.20
2022-08-26T13:14:01.313Z,31.90
2022-08-26T13:16:29.125Z,32.20
2022-08-26T13:18:58.919Z,32.20
2022-08-26T13:21:35.536Z,32.40
2022-08-26T13:24:13.744Z,32.20
2022-08-26T13:26:43.069Z,32.90
2022-08-26T13:29:10.758Z,33.10
2022-08-26T13:31:40.912Z,32.70
2022-08-26T13:34:09.687Z,32.70
2022-08-26T13:36:36.666Z,31.80
2022-08-26T13:39:06.133Z,31.60
2022-08-26T13:41:33.237Z,31.40
2022-08-26T13:44:00.105Z,32.10
2022-08-26T13:46:28.644Z,31.60
2022-08-26T13:48:59.319Z,30.90
2022-08-26T13:51:27.355Z,31.10
2022-08-26T13:53:54.605Z,30.70
2022-08-26T13:56:22.918Z,30.10
2022-08-26T13:58:49.997Z,29.80
2022-08-26T14:01:17.550Z,29.40
2022-08-26T14:03:45.226Z,29.10
2022-08-26T14:06:12.505Z,28.80
2022-08-26T14:08:39.797Z,29.30
2022-08-26T14:11:06.978Z,29.30
2022-08-26T14:13:34.211Z,29.60
2022-08-26T14:16:03.945Z,29.50
2022-08-26T14:18:41.636Z,29.80
2022-08-26T14:21:12.592Z,30.50
2022-08-26T14:23:40.193Z,30.90
2022-08-26T14:26:11.046Z,30.80
2022-08-26T14:28:43.742Z,30.60
2022-08-26T14:31:10.621Z,30.50
2022-08-26T14:33:38.432Z,31.50
2022-08-26T14:36:25.457Z,32.30
2022-08-26T14:38:53.239Z,31.80
2022-08-26T14:41:20.826Z,31.00
2022-08-26T14:43:58.871Z,30.80
2022-08-26T14:46:29.040Z,30.50
2022-08-26T14:49:01.500Z,30.00
2022-08-26T14:51:29.659Z,29.60
2022-08-26T14:54:14.944Z,29.40
2022-08-26T14:57:08.731Z,29.10
2022-08-26T14:59:41.468Z,28.80
2022-08-26T15:02:11.451Z,28.40
2022-08-26T15:04:41.291Z,28.30
2022-08-26T15:07:09.861Z,27.00
2022-08-26T15:09:39.862Z,26.20
2022-08-26T15:12:07.392Z,25.50
2022-08-26T15:14:34.341Z,24.70
2022-08-26T15:17:01.566Z,23.50
2022-08-26T15:19:28.742Z,22.80
2022-08-26T15:21:56.797Z,22.10
2022-08-26T15:24:26.273Z,21.60
2022-08-26T15:26:54.152Z,21.10
2022-08-26T15:29:24.108Z,20.50
2022-08-26T15:31:51.266Z,20.10
2022-08-26T15:34:19.506Z,19.90
2022-08-26T15:36:48.261Z,19.90
2022-08-26T15:39:17.143Z,19.90
2022-08-26T15:41:44.087Z,20.00
2022-08-26T15:44:11.948Z,19.90
2022-08-26T15:46:39.138Z,19.90
2022-08-26T15:49:07.039Z,19.80
2022-08-26T15:51:45.802Z,19.70
2022-08-26T15:54:16.069Z,19.70
2022-08-26T15:56:43.537Z,19.80
2022-08-26T15:59:11.611Z,19.90
2022-08-26T16:01:38.874Z,19.90
2022-08-26T16:04:06.451Z,20.00
2022-08-26T16:06:35.779Z,20.00
2022-08-26T16:09:03.655Z,20.10
2022-08-26T16:11:30.615Z,20.10
2022-08-26T16:13:57.469Z,20.10
2022-08-26T16:16:24.803Z,20.10
2022-08-26T16:18:52.196Z,20.00
2022-08-26T16:21:25.126Z,19.80
2022-08-26T16:23:52.366Z,19.40
2022-08-26T16:26:22.399Z,19.30
2022-08-26T16:28:50.613Z,19.30
2022-08-26T16:31:18.235Z,19.20
2022-08-26T16:33:46.152Z,19.30
2022-08-26T16:36:14.136Z,19.20
2022-08-26T16:38:42.296Z,19.20
2022-08-26T16:41:09.211Z,19.30
2022-08-26T16:43:36.217Z,19.40
2022-08-26T16:46:06.890Z,19.50
2022-08-26T16:48:34.263Z,19.60
2022-08-26T16:51:01.099Z,19.90
2022-08-26T16:53:28.030Z,20.20
2022-08-26T16:55:55.405Z,20.40
2022-08-26T16:58:22.478Z,20.70
2022-08-26T17:00:49.785Z,20.80
2022-08-26T17:03:17.178Z,21.10
2022-08-26T17:05:44.674Z,21.40
2022-08-26T17:08:13.770Z,21.40
2022-08-26T17:13:10.174Z,21.60
2022-08-26T17:15:37.297Z,21.50
2022-08-26T17:18:04.438Z,21.40
2022-08-26T17:20:31.363Z,21.50
2022-08-26T17:22:59.393Z,21.70
2022-08-26T17:25:29.348Z,21.80
2022-08-26T17:30:30.772Z,21.80
2022-08-26T17:32:58.390Z,22.00
2022-08-26T17:35:26.440Z,22.00
2022-08-26T17:37:54.443Z,21.90
2022-08-26T17:40:24.426Z,21.90
2022-08-26T17:42:52.341Z,21.90
2022-08-26T17:47:48.198Z,22.10
2022-08-26T17:50:17.167Z,22.00
2022-08-26T17:52:45.006Z,21.80
2022-08-26T17:55:15.025Z,21.60
2022-08-26T17:57:44.350Z,21.30
2022-08-26T18:00:26.347Z,21.00
2022-08-26T18:02:54.999Z,20.70
2022-08-26T18:05:22.562Z,20.40
2022-08-26T18:07:49.476Z,20.30
2022-08-26T18:10:18.314Z,20.10
2022-08-26T18:12:47.032Z,19.90
2022-08-26T18:15:15.988Z,19.80
2022-08-26T18:17:43.242Z,19.80
2022-08-26T18:20:13.506Z,19.70
2022-08-26T18:22:40.579Z,19.50
2022-08-26T18:25:08.791Z,19.50
2022-08-26T18:27:36.484Z,19.40
2022-08-26T18:30:07.369Z,19.30
2022-08-26T18:32:34.395Z,19.30
2022-08-26T18:35:01.666Z,19.40
2022-08-26T18:37:31.469Z,19.40
2022-08-26T18:39:59.603Z,19.40
2022-08-26T18:42:27.697Z,19.40
2022-08-26T18:44:55.125Z,19.40
2022-08-26T18:47:23.202Z,19.30
2022-08-26T18:49:50.873Z,19.20
2022-08-26T18:52:18.217Z,19.20
2022-08-26T18:54:45.509Z,19.10
2022-08-26T18:57:12.800Z,19.10
2022-08-26T18:59:40.983Z,19.10
2022-08-26T19:02:10.180Z,19.00
2022-08-26T19:04:41.110Z,19.00
2022-08-26T19:07:08.771Z,19.00
2022-08-26T19:09:36.111Z,19.00
2022-08-26T19:12:04.133Z,18.90
2022-08-26T19:14:33.129Z,19.00
2022-08-26T19:17:01.425Z,19.00
2022-08-26T19:19:28.870Z,19.00
2022-08-26T19:21:56.150Z,19.00
2022-08-26T19:24:27.292Z,19.10
2022-08-26T19:26:58.423Z,19.30
2022-08-26T19:29:28.524Z,19.50
2022-08-26T19:31:56.317Z,19.50
2022-08-26T19:34:24.501Z,19.60
2022-08-26T19:36:53.560Z,19.60
2022-08-26T19:39:21.270Z,19.70
2022-08-26T19:41:48.714Z,19.70
2022-08-26T19:44:38.052Z,19.80
2022-08-26T19:47:07.210Z,19.90
2022-08-26T19:49:35.012Z,19.90
2022-08-26T19:52:03.375Z,20.00
2022-08-26T19:54:30.827Z,20.00
2022-08-26T19:56:58.582Z,20.00
2022-08-26T19:59:25.586Z,20.00
2022-08-26T20:02:00.650Z,20.00
2022-08-26T20:04:32.152Z,20.00
2022-08-26T20:07:01.187Z,20.00
2022-08-26T20:09:29.479Z,19.90
2022-08-26T20:11:57.062Z,19.90
2022-08-26T20:14:25.116Z,19.90
2022-08-26T20:16:52.514Z,19.90
2022-08-26T20:19:38.219Z,19.90
2022-08-26T20:22:05.695Z,19.80
2022-08-26T20:24:34.201Z,19.80
2022-08-26T20:27:06.850Z,19.80
2022-08-26T20:29:35.406Z,19.80
2022-08-26T20:32:02.946Z,19.70
2022-08-26T20:34:30.280Z,19.70
2022-08-26T20:36:57.449Z,19.70
2022-08-26T20:39:25.267Z,19.70
2022-08-26T20:41:52.907Z,19.70
2022-08-26T20:44:20.123Z,19.70
2022-08-26T20:46:47.666Z,19.60
2022-08-26T20:49:15.628Z,19.60
2022-08-26T20:51:44.303Z,19.60
2022-08-26T20:54:13.162Z,19.60
2022-08-26T20:56:40.285Z,19.60
2022-08-26T20:59:08.696Z,19.60
2022-08-26T21:01:42.125Z,19.60
2022-08-26T21:04:23.574Z,19.60
2022-08-26T21:06:52.671Z,19.50
2022-08-26T21:09:22.745Z,19.50
2022-08-26T21:11:50.498Z,19.50
2022-08-26T21:14:19.086Z,19.50
2022-08-26T21:16:47.100Z,19.50
2022-08-26T21:19:18.523Z,19.60
2022-08-26T21:21:48.047Z,19.50
2022-08-26T21:24:15.232Z,19.50
2022-08-26T21:26:42.582Z,19.50
2022-08-26T21:29:10.026Z,19.50
2022-08-26T21:31:40.999Z,19.50
2022-08-26T21:34:14.494Z,19.50
2022-08-26T21:36:43.029Z,19.50
2022-08-26T21:39:11.955Z,19.50
2022-08-26T21:41:41.744Z,19.50
2022-08-26T21:44:12.622Z,19.50
2022-08-26T21:46:40.359Z,19.50
2022-08-26T21:49:09.915Z,19.50
2022-08-26T21:51:40.290Z,19.50
2022-08-26T21:54:10.808Z,19.50
2022-08-26T21:56:41.986Z,19.50
2022-08-26T21:59:09.234Z,19.50
2022-08-26T22:01:37.751Z,19.50
2022-08-26T22:04:07.968Z,19.40
2022-08-26T22:06:40.108Z,19.40
2022-08-26T22:09:06.987Z,19.40
2022-08-26T22:11:33.893Z,19.40
2022-08-26T22:14:00.733Z,19.40
2022-08-26T22:16:28.695Z,19.40
2022-08-26T22:18:56.114Z,19.30
2022-08-26T22:21:25.655Z,19.30
2022-08-26T22:23:58.000Z,19.30
2022-08-26T22:26:28.030Z,19.30
2022-08-26T22:28:59.161Z,19.20
2022-08-26T22:31:37.096Z,19.20
2022-08-26T22:34:15.121Z,19.30
2022-08-26T22:36:45.584Z,19.30
2022-08-26T22:39:21.413Z,19.30
2022-08-26T22:41:49.909Z,19.30
2022-08-26T22:44:18.146Z,19.30
2022-08-26T22:46:45.799Z,19.30
2022-08-26T22:49:16.389Z,19.20
2022-08-26T22:51:44.404Z,19.20
2022-08-26T22:54:11.662Z,19.20
2022-08-26T22:56:39.591Z,19.10
2022-08-26T22:59:08.013Z,19.10
2022-08-26T23:01:37.406Z,19.10
2022-08-26T23:04:06.588Z,19.10
2022-08-26T23:06:38.267Z,19.10
2022-08-26T23:09:06.774Z,19.10
2022-08-26T23:11:34.199Z,19.00
2022-08-26T23:14:06.168Z,19.00
2022-08-26T23:16:39.406Z,19.00
2022-08-26T23:19:08.177Z,19.00
2022-08-26T23:21:35.990Z,18.90
2022-08-26T23:24:03.122Z,18.90
2022-08-26T23:26:30.235Z,18.90
2022-08-26T23:28:57.122Z,18.80
2022-08-26T23:31:24.053Z,18.70
2022-08-26T23:34:09.575Z,18.70
2022-08-26T23:36:37.090Z,18.80
2022-08-26T23:39:05.921Z,18.70
2022-08-26T23:41:32.963Z,18.70
2022-08-26T23:44:03.374Z,18.60
2022-08-26T23:46:31.770Z,18.50
2022-08-26T23:48:58.619Z,18.50
2022-08-26T23:51:43.991Z,18.50
2022-08-26T23:54:13.655Z,18.40
2022-08-26T23:56:40.828Z,18.40
2022-08-26T23:59:08.131Z,18.40
